createdAt,value
2017-11-12T00:00:14.018Z,18.73
2017-11-12T00:02:48.296Z,18.93
2017-11-12T00:05:17.957Z,28.30
2017-11-12T00:07:47.475Z,19.70
2017-11-12T00:10:17.056Z,16.80
2017-11-12T00:12:46.598Z,23.60
2017-11-12T00:15:16.196Z,21.20
2017-11-12T00:17:45.779Z,20.17
2017-11-12T00:20:15.312Z,18.60
2017-11-12T00:22:51.568Z,19.70
2017-11-12T00:27:58.355Z,19.17
2017-11-12T00:30:45.086Z,16.00
2017-11-12T00:33:14.771Z,20.63
2017-11-12T00:35:47.422Z,22.30
2017-11-12T00:38:17.559Z,18.90
2017-11-12T00:40:47.056Z,21.10
2017-11-12T00:43:16.603Z,19.23
2017-11-12T00:45:46.140Z,19.20
2017-11-12T00:48:15.785Z,21.50
2017-11-12T00:50:45.373Z,20.27
2017-11-12T00:53:17.358Z,22.27
2017-11-12T00:55:46.861Z,20.33
2017-11-12T00:58:16.457Z,18.67
2017-11-12T01:00:46.005Z,17.60
2017-11-12T01:03:15.498Z,18.50
2017-11-12T01:05:45.082Z,20.93
2017-11-12T01:08:14.588Z,21.87
2017-11-12T01:10:44.094Z,19.03
2017-11-12T01:13:13.682Z,20.47
2017-11-12T01:15:43.240Z,16.57
2017-11-12T01:18:12.779Z,21.33
2017-11-12T01:20:42.353Z,17.27
2017-11-12T01:23:11.888Z,23.00
2017-11-12T01:25:41.461Z,16.57
2017-11-12T01:28:15.188Z,18.87
2017-11-12T01:30:44.954Z,13.17
2017-11-12T01:33:14.456Z,26.10
2017-11-12T01:35:45.203Z,22.23
2017-11-12T01:38:14.579Z,19.37
2017-11-12T01:40:44.111Z,22.37
2017-11-12T01:43:13.589Z,20.67
2017-11-12T01:45:43.111Z,21.10
2017-11-12T01:48:12.622Z,23.40
2017-11-12T01:50:42.177Z,18.17
2017-11-12T01:53:11.320Z,15.00
2017-11-12T01:55:40.839Z,20.17
2017-11-12T01:58:10.348Z,25.30
2017-11-12T02:00:39.579Z,23.23
2017-11-12T02:03:09.623Z,21.73
2017-11-12T02:05:39.254Z,22.20
2017-11-12T02:08:08.735Z,24.67
2017-11-12T02:10:38.247Z,18.77
2017-11-12T02:13:07.833Z,21.90
2017-11-12T02:15:37.314Z,18.10
2017-11-12T02:18:06.846Z,21.40
2017-11-12T02:20:35.797Z,18.70
2017-11-12T02:23:08.305Z,20.00
2017-11-12T02:25:37.460Z,20.20
2017-11-12T02:28:07.435Z,20.63
2017-11-12T02:30:37.768Z,19.30
2017-11-12T02:33:07.150Z,20.90
2017-11-12T02:35:37.865Z,18.90
2017-11-12T02:38:07.520Z,18.60
2017-11-12T02:40:36.736Z,20.63
2017-11-12T02:43:07.395Z,16.33
2017-11-12T02:45:36.998Z,25.10
2017-11-12T02:48:06.210Z,21.13
2017-11-12T02:50:36.836Z,20.73
2017-11-12T02:53:06.253Z,15.50
2017-11-12T02:55:35.465Z,25.73
2017-11-12T02:58:09.087Z,25.73
2017-11-12T03:00:38.813Z,15.27
2017-11-12T03:03:08.364Z,17.90
2017-11-12T03:05:37.867Z,19.27
2017-11-12T03:08:07.116Z,15.33
2017-11-12T03:10:36.624Z,17.70
2017-11-12T03:13:06.254Z,12.73
2017-11-12T03:15:40.220Z,20.37
2017-11-12T03:18:14.889Z,22.60
2017-11-12T03:20:44.444Z,17.80
2017-11-12T03:23:13.930Z,14.70
2017-11-12T03:25:43.126Z,19.70
2017-11-12T03:28:12.739Z,18.57
2017-11-12T03:30:43.194Z,17.67
2017-11-12T03:33:12.687Z,17.53
2017-11-12T03:35:43.724Z,16.20
2017-11-12T03:38:13.390Z,21.80
2017-11-12T03:43:18.988Z,13.60
2017-11-12T03:45:48.577Z,15.07
2017-11-12T03:48:18.160Z,16.30
2017-11-12T03:50:47.364Z,20.13
2017-11-12T03:53:16.902Z,17.90
2017-11-12T03:55:46.105Z,21.90
2017-11-12T03:58:15.668Z,11.80
2017-11-12T04:00:45.209Z,15.20
2017-11-12T04:03:14.671Z,16.20
2017-11-12T04:05:45.749Z,18.07
2017-11-12T04:08:15.066Z,15.73
2017-11-12T04:10:44.553Z,18.00
2017-11-12T04:13:14.041Z,16.90
2017-11-12T04:15:44.881Z,18.50
2017-11-12T04:18:14.057Z,18.23
2017-11-12T04:20:43.469Z,22.70
2017-11-12T04:23:12.996Z,12.53
2017-11-12T04:25:42.512Z,9.43
2017-11-12T04:28:12.036Z,11.17
2017-11-12T04:30:42.482Z,18.33
2017-11-12T04:33:12.058Z,16.17
2017-11-12T04:35:41.608Z,16.60
2017-11-12T04:38:11.156Z,17.53
2017-11-12T04:40:40.704Z,15.00
2017-11-12T04:43:10.277Z,25.00
2017-11-12T04:45:39.863Z,12.33
2017-11-12T04:48:09.401Z,9.77
2017-11-12T04:50:38.941Z,17.00
2017-11-12T04:53:08.481Z,15.63
2017-11-12T04:55:38.002Z,14.90
2017-11-12T04:58:07.164Z,13.40
2017-11-12T05:00:36.372Z,11.00
2017-11-12T05:03:05.929Z,13.47
2017-11-12T05:05:35.440Z,12.20
2017-11-12T05:08:05.134Z,13.67
2017-11-12T05:10:34.706Z,12.70
2017-11-12T05:13:04.292Z,13.50
2017-11-12T05:15:33.841Z,13.67
2017-11-12T05:18:05.664Z,13.57
2017-11-12T05:20:35.206Z,11.37
2017-11-12T05:23:04.714Z,16.33
2017-11-12T05:25:34.168Z,16.87
2017-11-12T05:28:03.688Z,10.90
2017-11-12T05:30:33.207Z,11.50
2017-11-12T05:33:02.782Z,14.00
2017-11-12T05:35:32.566Z,12.70
2017-11-12T05:38:02.215Z,13.13
2017-11-12T05:40:31.776Z,14.17
2017-11-12T05:43:01.306Z,16.63
2017-11-12T05:45:30.859Z,9.67
2017-11-12T05:48:00.456Z,13.53
2017-11-12T05:50:29.988Z,11.33
2017-11-12T05:53:01.170Z,13.03
2017-11-12T05:55:30.981Z,11.77
2017-11-12T05:58:00.583Z,14.43
2017-11-12T06:00:30.405Z,14.00
2017-11-12T06:03:00.019Z,9.77
2017-11-12T06:05:29.592Z,10.80
2017-11-12T06:07:59.009Z,12.67
2017-11-12T06:10:28.349Z,17.47
2017-11-12T06:12:58.745Z,11.27
2017-11-12T06:15:27.886Z,9.30
2017-11-12T06:18:01.923Z,13.27
2017-11-12T06:20:31.314Z,15.30
2017-11-12T06:23:00.830Z,10.80
2017-11-12T06:25:30.347Z,10.70
2017-11-12T06:27:59.915Z,11.47
2017-11-12T06:30:29.430Z,10.23
2017-11-12T06:32:58.813Z,11.07
2017-11-12T06:35:28.909Z,6.27
2017-11-12T06:37:58.478Z,13.43
2017-11-12T06:40:29.382Z,10.50
2017-11-12T06:42:59.103Z,11.87
2017-11-12T06:45:28.729Z,9.57
2017-11-12T06:47:58.427Z,8.03
2017-11-12T06:50:28.089Z,10.73
2017-11-12T06:52:57.638Z,10.23
2017-11-12T06:55:27.197Z,8.03
2017-11-12T06:57:57.594Z,8.70
2017-11-12T07:00:27.207Z,7.37
2017-11-12T07:02:59.583Z,7.80
2017-11-12T07:05:29.447Z,10.23
2017-11-12T07:07:59.033Z,6.50
2017-11-12T07:10:29.842Z,5.57
2017-11-12T07:13:05.568Z,13.20
2017-11-12T07:15:35.401Z,9.30
2017-11-12T07:18:05.672Z,8.77
2017-11-12T07:20:35.222Z,7.33
2017-11-12T07:23:04.747Z,7.43
2017-11-12T07:25:34.327Z,5.90
2017-11-12T07:28:03.875Z,7.93
2017-11-12T07:30:34.318Z,8.70
2017-11-12T07:33:05.995Z,7.23
2017-11-12T07:35:36.078Z,6.70
2017-11-12T07:41:02.048Z,5.63
2017-11-12T07:43:46.555Z,7.60
2017-11-12T07:48:57.476Z,8.47
2017-11-12T07:51:26.965Z,7.63
2017-11-12T07:53:57.558Z,8.57
2017-11-12T08:02:02.966Z,12.83
2017-11-12T08:04:32.531Z,8.43
2017-11-12T08:07:02.022Z,7.00
2017-11-12T08:09:31.547Z,9.03
2017-11-12T08:14:36.198Z,11.53
2017-11-12T08:17:06.670Z,9.83
2017-11-12T08:19:36.229Z,13.00
2017-11-12T08:22:05.841Z,10.57
2017-11-12T08:24:35.983Z,8.73
2017-11-12T08:27:05.529Z,8.97
2017-11-12T08:29:34.689Z,6.77
2017-11-12T08:32:04.687Z,3.80
2017-11-12T08:34:34.298Z,6.00
2017-11-12T08:37:03.484Z,7.43
2017-11-12T08:39:32.825Z,5.27
2017-11-12T08:42:02.175Z,5.63
2017-11-12T08:44:31.781Z,3.10
2017-11-12T08:50:04.574Z,5.57
2017-11-12T08:55:41.342Z,5.37
2017-11-12T09:01:09.296Z,2.87
2017-11-12T09:03:38.880Z,2.37
2017-11-12T09:06:08.027Z,2.10
2017-11-12T09:08:37.696Z,5.13
2017-11-12T09:11:09.777Z,3.40
2017-11-12T09:13:40.686Z,2.47
2017-11-12T09:19:08.888Z,6.33
2017-11-12T09:24:15.091Z,2.70
2017-11-12T09:29:41.870Z,2.93
2017-11-12T09:32:11.401Z,3.63
2017-11-12T09:34:41.275Z,4.70
2017-11-12T09:40:10.344Z,3.10
2017-11-12T09:48:27.612Z,2.47
2017-11-12T09:56:56.584Z,2.93
2017-11-12T09:59:27.181Z,3.43
2017-11-12T10:28:47.364Z,4.23
2017-11-12T10:34:19.814Z,6.10
2017-11-12T10:46:07.410Z,4.17
2017-11-12T10:57:43.298Z,6.93
2017-11-12T11:00:13.788Z,5.40
2017-11-12T11:02:44.051Z,5.30
2017-11-12T11:10:49.821Z,7.80
2017-11-12T11:22:18.383Z,4.40
2017-11-12T11:24:48.003Z,4.10
2017-11-12T11:27:33.296Z,5.03
2017-11-12T11:33:14.327Z,6.80
2017-11-12T11:35:43.859Z,5.63
2017-11-12T11:38:17.449Z,4.70
2017-11-12T11:40:47.053Z,4.40
2017-11-12T11:46:19.718Z,4.80
2017-11-12T11:51:47.670Z,5.13
2017-11-12T11:54:17.233Z,5.10
2017-11-12T12:26:12.989Z,6.50
2017-11-12T12:45:52.934Z,5.80
2017-11-12T12:51:29.657Z,8.40
2017-11-12T12:57:02.698Z,14.27
2017-11-12T13:02:34.062Z,10.67
2017-11-12T13:05:02.612Z,9.30
2017-11-12T13:07:31.340Z,11.20
2017-11-12T13:19:09.004Z,8.13
2017-11-12T13:21:53.280Z,9.97
2017-11-12T13:27:24.679Z,8.43
2017-11-12T13:29:55.862Z,7.50
2017-11-12T13:32:25.416Z,7.13
2017-11-12T13:34:53.814Z,7.10
2017-11-12T13:43:32.988Z,8.63
2017-11-12T13:46:01.912Z,6.20
2017-11-12T14:03:46.080Z,4.57
2017-11-12T14:06:14.648Z,5.13
2017-11-12T14:11:53.368Z,3.60
2017-11-12T14:20:14.971Z,5.97
2017-11-12T14:29:00.803Z,3.33
2017-11-12T14:40:15.224Z,2.13
2017-11-12T14:42:44.728Z,1.87
2017-11-12T14:54:21.890Z,1.53
2017-11-12T14:59:54.086Z,0.60
2017-11-12T15:11:00.714Z,3.00
2017-11-12T15:25:38.800Z,3.13
2017-11-12T15:31:10.579Z,6.50
2017-11-12T15:33:39.499Z,1.80
2017-11-12T15:39:12.187Z,10.00
2017-11-12T15:53:20.587Z,4.40
2017-11-12T16:07:24.420Z,2.07
2017-11-12T16:12:55.213Z,2.23
2017-11-12T16:15:25.589Z,2.40
2017-11-12T16:17:54.365Z,2.60
2017-11-12T16:20:31.131Z,3.80
2017-11-12T16:23:00.574Z,2.90
2017-11-12T16:28:32.835Z,24.63
2017-11-12T16:34:05.075Z,5.13
2017-11-12T16:42:44.298Z,5.27
2017-11-12T16:48:00.102Z,7.00
2017-11-12T16:53:43.300Z,4.00
2017-11-12T16:56:12.161Z,4.20
2017-11-12T16:58:40.766Z,3.83
2017-11-12T17:01:09.289Z,3.67
2017-11-12T17:03:37.816Z,2.07
2017-11-12T17:06:06.457Z,4.03
2017-11-12T17:08:35.246Z,2.67
2017-11-12T17:11:03.749Z,3.47
2017-11-12T17:13:32.365Z,3.20
2017-11-12T17:16:02.428Z,5.73
2017-11-12T17:18:31.967Z,3.30
2017-11-12T17:21:01.687Z,6.70
2017-11-12T17:26:18.063Z,4.83
2017-11-12T17:28:49.479Z,2.80
2017-11-12T17:31:25.147Z,3.00
2017-11-12T17:36:56.571Z,3.37
2017-11-12T17:39:39.043Z,5.77
2017-11-12T17:42:30.233Z,3.37
2017-11-12T17:44:59.501Z,3.30
2017-11-12T17:47:29.238Z,6.33
2017-11-12T17:49:57.843Z,4.70
2017-11-12T17:58:22.551Z,4.47
2017-11-12T18:00:52.358Z,4.13
2017-11-12T18:09:27.717Z,5.67
2017-11-12T18:27:00.528Z,6.07
2017-11-12T18:29:41.113Z,6.17
2017-11-12T18:32:15.985Z,6.63
2017-11-12T18:34:45.278Z,6.07
2017-11-12T18:37:15.373Z,4.63
2017-11-12T18:39:43.756Z,5.47
2017-11-12T18:42:12.134Z,4.63
2017-11-12T18:44:50.167Z,5.50
2017-11-12T18:47:18.604Z,6.07
2017-11-12T18:56:10.896Z,5.00
2017-11-12T18:58:43.647Z,5.50
2017-11-12T19:01:19.955Z,4.80
2017-11-12T19:04:05.880Z,4.90
2017-11-12T19:12:35.325Z,5.50
2017-11-12T19:21:01.971Z,5.33
2017-11-12T19:41:12.923Z,7.77
2017-11-12T19:52:42.607Z,5.23
2017-11-12T19:55:12.423Z,4.93
2017-11-12T19:57:42.632Z,5.40
2017-11-12T20:00:12.282Z,6.30
2017-11-12T20:02:42.157Z,5.47
2017-11-12T20:05:14.788Z,6.27
2017-11-12T20:28:28.241Z,5.30
2017-11-12T20:30:58.207Z,6.83
2017-11-12T20:36:26.607Z,6.23
2017-11-12T20:38:56.191Z,5.10
2017-11-12T20:44:29.855Z,4.80
2017-11-12T20:47:02.071Z,6.27
2017-11-12T20:52:35.091Z,5.37
2017-11-12T20:58:03.501Z,6.10
2017-11-12T21:00:33.264Z,8.60
2017-11-12T21:03:02.565Z,4.93
2017-11-12T21:05:53.675Z,6.07
2017-11-12T21:13:57.622Z,6.60
2017-11-12T21:19:22.373Z,8.00
2017-11-12T21:24:39.894Z,8.03
2017-11-12T21:38:40.295Z,7.77
2017-11-12T21:47:14.329Z,6.33
2017-11-12T21:52:47.806Z,7.27
2017-11-12T22:01:13.857Z,5.07
2017-11-12T22:06:52.765Z,6.00
2017-11-12T22:09:22.570Z,7.87
2017-11-12T22:11:53.859Z,5.93
2017-11-12T22:17:26.433Z,6.93
2017-11-12T22:20:09.569Z,5.13
2017-11-12T22:22:39.451Z,6.30
2017-11-12T22:31:04.456Z,6.13
2017-11-12T22:39:29.907Z,4.47
2017-11-12T22:41:59.943Z,5.40
2017-11-12T22:47:29.388Z,5.93
2017-11-12T22:50:00.179Z,4.17
2017-11-12T22:55:32.449Z,3.77
2017-11-12T23:01:07.981Z,4.23
2017-11-12T23:06:39.860Z,5.23
2017-11-12T23:09:19.427Z,4.00
2017-11-12T23:14:47.570Z,3.30
2017-11-12T23:38:00.286Z,6.47
2017-11-12T23:46:31.337Z,4.40
